Terminal Aerodrome Forecast
Issued by NWS Denver/Boulder, CO

Current Version | Previous Version | Text Only | Print | Product List | Glossary On
Versions: 1 2 3 4 5 6 7 8 9 10 11 12 13 14 15 16 17 18 19 20 21 22 23 24 25 26 27 28 29 30 31 32 33 34 35 36 37 38 39 40 41 42 43 44 45 46 47 48 49 50
000
FTUS45 KBOU 272340
TAFDEN
TAF
KDEN 272340Z 2800/2906 16006KT P6SM SCT220
     FM280300 21008KT P6SM SCT220
     FM281400 VRB05KT P6SM SCT120 BKN220
     FM281900 16006KT P6SM SCT100 BKN200
     FM290200 21008KT P6SM SCT100 BKN200=

USA.gov is the U.S. government's official web portal to all federal, state and local government web resources and services.